Baruta, Venezuela
Current Conditions -  °F | °C
As of 8:00 PM on Monday 22 Dec 2014 (Local Time) from SVMI Reporting Station
Broken Clouds Broken Clouds  
Wind Chill: 79°   Ceiling: 1600
Heat Index: 82°   Visibility: 6mi
Dew Point: 72°   Wind: 5mph
Humidity: 78%   Direction: 50°NE
Pressure: 29.94"   Gusts: NA
Location:  10.43°N, 66.88°W
Report Text: SVMI 230000Z 05004KT 9999 BKN016 26/22 Q1014 NOSIG
Loading
Personal Weather Stations






























Interactive Weather Map New forecast layout! Learn more

10-Day Weather Forecast

Advertisements
Track Severe Weather on mobile